createdAt,value
2019-05-02T00:03:26.190Z,14.80
2019-05-02T00:08:33.255Z,14.80
2019-05-02T00:13:40.245Z,14.80
2019-05-02T00:18:46.002Z,14.70
2019-05-02T00:23:51.978Z,14.70
2019-05-02T00:28:57.990Z,14.70
2019-05-02T00:34:05.258Z,14.70
2019-05-02T00:39:13.805Z,14.60
2019-05-02T00:44:18.581Z,14.70
2019-05-02T00:49:24.566Z,14.60
2019-05-02T00:54:30.635Z,14.60
2019-05-02T00:59:37.783Z,14.60
2019-05-02T01:04:45.801Z,14.60
2019-05-02T01:09:51.815Z,14.50
2019-05-02T01:14:57.880Z,14.50
2019-05-02T01:20:03.857Z,14.60
2019-05-02T01:25:14.992Z,14.60
2019-05-02T01:30:46.022Z,14.50
2019-05-02T01:36:06.363Z,14.50
2019-05-02T01:41:11.074Z,14.40
2019-05-02T01:46:21.713Z,14.40
2019-05-02T01:51:24.561Z,14.40
2019-05-02T01:56:33.145Z,14.40
2019-05-02T02:01:38.409Z,14.40
2019-05-02T02:06:45.203Z,14.30
2019-05-02T02:11:51.352Z,14.30
2019-05-02T02:16:57.200Z,14.20
2019-05-02T02:22:39.154Z,14.20
2019-05-02T02:27:44.704Z,14.10
2019-05-02T02:32:50.550Z,14.00
2019-05-02T02:37:57.922Z,14.00
2019-05-02T02:43:12.857Z,14.00
2019-05-02T02:48:11.233Z,14.00
2019-05-02T02:53:24.170Z,13.90
2019-05-02T02:58:26.575Z,13.80
2019-05-02T03:03:35.194Z,13.60
2019-05-02T03:08:46.286Z,13.50
2019-05-02T03:14:05.676Z,13.50
2019-05-02T03:19:01.633Z,13.50
2019-05-02T03:24:07.534Z,13.40
2019-05-02T03:29:13.581Z,13.50
2019-05-02T03:34:19.575Z,13.40
2019-05-02T03:39:25.855Z,13.30
2019-05-02T03:44:32.085Z,13.30
2019-05-02T03:49:41.064Z,13.30
2019-05-02T03:54:50.065Z,13.30
2019-05-02T03:59:53.595Z,13.20
2019-05-02T04:05:00.389Z,13.20
2019-05-02T04:10:07.550Z,13.20
2019-05-02T04:15:13.777Z,13.20
2019-05-02T04:25:27.895Z,13.00
2019-05-02T04:30:32.674Z,12.90
2019-05-02T04:35:38.738Z,12.80
2019-05-02T04:40:46.639Z,12.70
2019-05-02T04:45:56.347Z,12.50
2019-05-02T04:51:10.044Z,12.40
2019-05-02T04:56:10.550Z,12.40
2019-05-02T05:01:16.882Z,12.40
2019-05-02T05:06:22.725Z,12.40
2019-05-02T05:11:28.720Z,12.40
2019-05-02T05:16:34.866Z,12.40
2019-05-02T05:21:40.865Z,12.50
2019-05-02T05:26:49.653Z,12.50
2019-05-02T05:32:05.242Z,12.60
2019-05-02T05:37:03.786Z,12.60
2019-05-02T05:42:11.938Z,12.60
2019-05-02T05:47:21.227Z,12.70
2019-05-02T05:52:27.158Z,12.60
2019-05-02T05:57:33.523Z,12.70
2019-05-02T06:02:53.263Z,12.70
2019-05-02T06:07:47.475Z,12.80
2019-05-02T06:12:55.499Z,12.70
2019-05-02T06:18:04.838Z,12.70
2019-05-02T06:23:08.948Z,12.80
2019-05-02T06:28:15.031Z,12.80
2019-05-02T06:33:21.087Z,12.90
2019-05-02T06:38:27.724Z,12.90
2019-05-02T06:43:33.887Z,12.90
2019-05-02T06:48:40.115Z,13.00
2019-05-02T06:53:47.117Z,13.00
2019-05-02T06:58:53.836Z,13.10
2019-05-02T07:03:59.846Z,13.30
2019-05-02T07:09:07.248Z,13.40
2019-05-02T07:14:14.045Z,13.40
2019-05-02T07:19:42.140Z,13.40
2019-05-02T07:24:48.065Z,13.40
2019-05-02T07:29:57.700Z,13.50
2019-05-02T07:35:03.206Z,13.40
2019-05-02T07:40:12.067Z,13.50
2019-05-02T07:45:17.809Z,13.50
2019-05-02T07:50:23.910Z,13.70
2019-05-02T07:55:30.706Z,14.00
2019-05-02T08:00:38.503Z,14.20
2019-05-02T08:05:44.719Z,14.20
2019-05-02T08:10:53.860Z,14.30
2019-05-02T08:15:58.358Z,14.60
2019-05-02T08:21:04.458Z,15.00
2019-05-02T08:26:10.510Z,15.30
2019-05-02T08:31:18.868Z,15.40
2019-05-02T08:36:23.945Z,15.50
2019-05-02T08:41:29.968Z,15.70
2019-05-02T08:46:35.995Z,15.70
2019-05-02T08:51:41.832Z,15.80
2019-05-02T08:56:47.827Z,16.00
2019-05-02T09:01:53.730Z,16.00
2019-05-02T09:07:00.787Z,15.90
2019-05-02T09:12:12.310Z,15.80
2019-05-02T09:17:16.656Z,15.90
2019-05-02T09:22:22.280Z,15.90
2019-05-02T09:27:28.167Z,16.00
2019-05-02T09:32:37.087Z,15.70
2019-05-02T09:37:52.247Z,15.80
2019-05-02T09:43:01.960Z,16.10
2019-05-02T09:48:08.108Z,16.20
2019-05-02T09:53:20.782Z,16.40
2019-05-02T09:58:23.891Z,16.50
2019-05-02T10:03:29.367Z,16.60
2019-05-02T10:08:38.218Z,16.60
2019-05-02T10:13:42.853Z,16.40
2019-05-02T10:18:48.921Z,16.20
2019-05-02T10:23:59.399Z,16.00
2019-05-02T10:29:02.678Z,16.20
2019-05-02T10:34:16.275Z,16.60
2019-05-02T10:39:16.275Z,16.80
2019-05-02T10:44:22.711Z,16.70
2019-05-02T10:49:42.489Z,16.50
2019-05-02T10:54:48.109Z,16.60
2019-05-02T10:59:56.129Z,16.60
2019-05-02T11:05:06.449Z,16.40
2019-05-02T11:10:12.900Z,16.30
2019-05-02T11:15:44.301Z,16.20
2019-05-02T11:25:45.474Z,16.10
2019-05-02T11:30:52.432Z,16.20
2019-05-02T11:35:58.677Z,16.10
2019-05-02T11:41:04.713Z,16.10
2019-05-02T11:46:12.115Z,16.00
2019-05-02T11:51:18.203Z,16.00
2019-05-02T11:56:24.076Z,16.00
2019-05-02T12:01:37.048Z,16.00
2019-05-02T12:06:37.652Z,16.00
2019-05-02T12:11:47.516Z,15.90
2019-05-02T12:16:52.673Z,15.90
2019-05-02T12:21:58.970Z,15.80
2019-05-02T12:27:05.061Z,15.80
2019-05-02T12:32:12.056Z,15.90
2019-05-02T12:37:18.100Z,15.90
2019-05-02T12:42:24.885Z,16.00
2019-05-02T12:47:33.861Z,16.20
2019-05-02T12:52:39.856Z,16.40
2019-05-02T12:57:45.933Z,16.70
2019-05-02T13:02:58.479Z,16.70
2019-05-02T13:08:04.417Z,16.90
2019-05-02T13:13:12.281Z,17.00
2019-05-02T13:18:22.652Z,16.90
2019-05-02T13:23:48.121Z,16.90
2019-05-02T13:28:54.329Z,16.90
2019-05-02T13:34:11.701Z,16.70
2019-05-02T13:39:22.819Z,16.60
2019-05-02T13:44:32.566Z,16.60
2019-05-02T13:49:51.435Z,16.50
2019-05-02T13:54:46.533Z,16.50
2019-05-02T13:59:52.664Z,16.80
2019-05-02T14:04:58.881Z,17.10
2019-05-02T14:10:11.965Z,17.00
2019-05-02T14:15:22.030Z,16.80
2019-05-02T14:20:28.076Z,16.70
2019-05-02T14:25:34.244Z,16.60
2019-05-02T14:30:45.564Z,16.80
2019-05-02T14:35:48.478Z,16.90
2019-05-02T14:41:12.461Z,17.10
2019-05-02T14:46:19.314Z,17.10
2019-05-02T14:51:27.625Z,17.00
2019-05-02T14:56:48.636Z,16.90
2019-05-02T15:02:05.789Z,16.80
2019-05-02T15:07:05.366Z,17.00
2019-05-02T15:12:15.767Z,17.20
2019-05-02T15:17:19.187Z,17.10
2019-05-02T15:22:27.593Z,17.10
2019-05-02T15:27:40.255Z,17.10
2019-05-02T15:32:52.988Z,17.10
2019-05-02T15:38:02.526Z,17.00
2019-05-02T15:43:09.599Z,16.90
2019-05-02T15:48:21.531Z,16.90
2019-05-02T15:53:39.084Z,16.80
2019-05-02T15:58:43.934Z,16.90
2019-05-02T16:03:52.251Z,16.90
2019-05-02T16:08:58.306Z,16.80
2019-05-02T16:14:04.398Z,16.70
2019-05-02T16:19:14.951Z,16.70
2019-05-02T16:24:23.030Z,16.50
2019-05-02T16:29:29.394Z,16.20
2019-05-02T16:34:54.239Z,16.00
2019-05-02T16:39:57.915Z,15.70
2019-05-02T16:45:03.882Z,15.50
2019-05-02T16:50:12.244Z,15.00
2019-05-02T16:55:21.253Z,14.70
2019-05-02T17:00:26.826Z,14.40
2019-05-02T17:05:33.943Z,14.40
2019-05-02T17:10:47.236Z,14.90
2019-05-02T17:15:52.249Z,14.90
2019-05-02T17:20:58.260Z,14.60
2019-05-02T17:26:04.406Z,14.40
2019-05-02T17:31:18.815Z,14.30
2019-05-02T17:36:21.595Z,14.20
2019-05-02T17:41:25.740Z,14.20
2019-05-02T17:46:31.826Z,14.20
2019-05-02T17:52:05.044Z,14.20
2019-05-02T17:57:03.198Z,14.20
2019-05-02T18:02:12.305Z,14.30
2019-05-02T18:07:18.173Z,14.30
2019-05-02T18:12:24.425Z,14.30
2019-05-02T18:17:31.789Z,14.20
2019-05-02T18:22:40.019Z,14.20
2019-05-02T18:27:45.667Z,14.20
2019-05-02T18:32:52.854Z,14.10
2019-05-02T18:37:59.098Z,14.10
2019-05-02T18:43:05.538Z,14.10
2019-05-02T18:48:13.489Z,14.10
2019-05-02T18:53:24.364Z,14.00
2019-05-02T18:58:27.683Z,14.00
2019-05-02T19:03:33.681Z,13.90
2019-05-02T19:08:47.589Z,13.90
2019-05-02T19:13:53.220Z,13.90
2019-05-02T19:19:01.733Z,13.90
2019-05-02T19:24:07.843Z,14.10
2019-05-02T19:29:31.868Z,14.10
2019-05-02T19:34:41.786Z,14.00
2019-05-02T19:39:48.878Z,13.90
2019-05-02T19:44:55.208Z,13.80
2019-05-02T19:50:03.041Z,13.80
2019-05-02T19:55:14.148Z,13.80
2019-05-02T20:00:17.248Z,13.70
2019-05-02T20:05:25.528Z,13.70
2019-05-02T20:10:32.194Z,13.60
2019-05-02T20:15:42.224Z,13.60
2019-05-02T20:21:25.964Z,13.60
2019-05-02T20:26:25.846Z,13.60
2019-05-02T20:31:32.259Z,13.50
2019-05-02T20:36:38.214Z,13.50
2019-05-02T20:41:44.276Z,13.50
2019-05-02T20:46:51.648Z,13.40
2019-05-02T20:51:57.714Z,13.40
2019-05-02T20:57:03.608Z,13.40
2019-05-02T21:02:09.558Z,13.30
2019-05-02T21:07:37.500Z,13.30
2019-05-02T21:12:43.212Z,13.40
2019-05-02T21:17:49.204Z,13.30
2019-05-02T21:22:55.194Z,13.40
2019-05-02T21:28:02.815Z,13.30
2019-05-02T21:33:31.925Z,13.20
2019-05-02T21:38:38.215Z,13.10
2019-05-02T21:43:44.317Z,13.10
2019-05-02T21:48:52.489Z,13.00
2019-05-02T21:54:26.050Z,13.00
2019-05-02T21:59:32.096Z,12.90
2019-05-02T22:04:38.182Z,12.90
2019-05-02T22:09:44.046Z,12.90
2019-05-02T22:14:49.876Z,12.90
2019-05-02T22:19:55.729Z,12.90
2019-05-02T22:25:02.224Z,12.90
2019-05-02T22:30:08.686Z,12.90
2019-05-02T22:35:14.737Z,12.90
2019-05-02T22:40:21.825Z,12.90
2019-05-02T22:45:28.026Z,12.80
2019-05-02T22:50:34.200Z,12.80
2019-05-02T22:55:40.247Z,12.70
2019-05-02T23:00:46.333Z,12.70
2019-05-02T23:05:52.705Z,12.80
2019-05-02T23:10:58.706Z,12.90
2019-05-02T23:16:04.678Z,12.80
2019-05-02T23:21:12.680Z,12.70
2019-05-02T23:26:34.238Z,12.80
2019-05-02T23:31:42.220Z,12.70
2019-05-02T23:36:48.026Z,12.70
2019-05-02T23:41:53.915Z,12.60
2019-05-02T23:46:59.907Z,12.50
2019-05-02T23:52:05.841Z,12.50
2019-05-02T23:57:12.241Z,12.50
